createdAt,value
2018-11-28T00:02:19.468Z,1024.1
2018-11-28T00:07:19.058Z,1024.1
2018-11-28T00:12:19.241Z,1024.1
2018-11-28T00:17:19.778Z,1024.1
2018-11-28T00:22:19.958Z,1024.1
2018-11-28T00:27:19.323Z,1024.1
2018-11-28T00:32:19.545Z,1024.1
2018-11-28T00:37:20.061Z,1023.9
2018-11-28T00:42:19.142Z,1023.9
2018-11-28T00:47:19.516Z,1023.8
2018-11-28T00:52:19.796Z,1023.8
2018-11-28T00:57:19.619Z,1023.8
2018-11-28T01:02:19.960Z,1023.8
2018-11-28T01:07:19.196Z,1024
2018-11-28T01:12:19.402Z,1024
2018-11-28T01:17:19.759Z,1024
2018-11-28T01:22:20.036Z,1024
2018-11-28T01:27:19.245Z,1024
2018-11-28T01:32:19.445Z,1024
2018-11-28T01:37:19.997Z,1024
2018-11-28T01:42:19.209Z,1024
2018-11-28T01:47:19.627Z,1024.2
2018-11-28T01:52:19.736Z,1024.2
2018-11-28T01:57:19.470Z,1024.2
2018-11-28T02:02:19.732Z,1024.2
2018-11-28T02:07:19.577Z,1024.2
2018-11-28T02:12:19.719Z,1024.2
2018-11-28T02:17:20.143Z,1024.2
2018-11-28T02:22:19.296Z,1024.2
2018-11-28T02:27:19.525Z,1024.2
2018-11-28T02:32:19.613Z,1024.2
2018-11-28T02:37:19.969Z,1024
2018-11-28T02:42:20.152Z,1024
2018-11-28T02:47:19.362Z,1023.9
2018-11-28T02:52:19.264Z,1023.9
2018-11-28T02:57:19.633Z,1023.9
2018-11-28T03:02:20.071Z,1023.9
2018-11-28T03:07:20.182Z,1023.9
2018-11-28T03:12:19.536Z,1023.9
2018-11-28T03:17:19.914Z,1024.2
2018-11-28T03:22:20.088Z,1024.2
2018-11-28T03:27:19.416Z,1024.2
2018-11-28T03:32:19.566Z,1024.2
2018-11-28T03:37:19.757Z,1024.2
2018-11-28T03:42:19.840Z,1024.2
2018-11-28T03:47:20.198Z,1024.3
2018-11-28T03:52:19.410Z,1024.3
2018-11-28T03:57:19.737Z,1024.3
2018-11-28T04:02:20.198Z,1024.3
2018-11-28T04:07:19.442Z,1024.3
2018-11-28T04:12:19.640Z,1024.3
2018-11-28T04:17:20.056Z,1024.3
2018-11-28T04:22:20.290Z,1024.3
2018-11-28T04:27:19.530Z,1024.3
2018-11-28T04:32:19.719Z,1024.3
2018-11-28T04:37:20.128Z,1024.2
2018-11-28T04:42:19.547Z,1024.2
2018-11-28T04:47:19.829Z,1024
2018-11-28T04:52:20.028Z,1024
2018-11-28T04:57:19.577Z,1024
2018-11-28T05:02:20.034Z,1024
2018-11-28T05:07:19.609Z,1024
2018-11-28T05:12:19.908Z,1024
2018-11-28T05:17:20.216Z,1023.9
2018-11-28T05:22:19.562Z,1023.9
2018-11-28T05:27:20.107Z,1023.9
2018-11-28T05:32:19.876Z,1023.9
2018-11-28T05:37:19.976Z,1024
2018-11-28T05:42:20.149Z,1024
2018-11-28T05:47:19.625Z,1024.1
2018-11-28T05:52:19.743Z,1024.1
2018-11-28T05:57:19.897Z,1024.1
2018-11-28T06:02:19.695Z,1024.1
2018-11-28T06:07:20.196Z,1024.1
2018-11-28T06:12:20.225Z,1024.1
2018-11-28T06:17:19.593Z,1024.3
2018-11-28T06:22:19.836Z,1024.3
2018-11-28T06:27:20.100Z,1024.3
2018-11-28T06:32:19.521Z,1024.3
2018-11-28T06:37:19.931Z,1024.3
2018-11-28T06:42:20.219Z,1024.3
2018-11-28T06:47:19.472Z,1024.3
2018-11-28T06:52:19.957Z,1024.3
2018-11-28T06:57:20.316Z,1024.3
2018-11-28T07:02:19.666Z,1024.3
2018-11-28T07:07:20.438Z,1024.3
2018-11-28T07:12:19.645Z,1024.3
2018-11-28T07:17:20.159Z,1024.5
2018-11-28T07:22:20.325Z,1024.5
2018-11-28T07:27:19.616Z,1024.5
2018-11-28T07:32:20.323Z,1024.5
2018-11-28T07:37:19.726Z,1024.5
2018-11-28T07:42:19.985Z,1024.5
2018-11-28T07:47:20.555Z,1024.5
2018-11-28T07:52:19.604Z,1024.5
2018-11-28T07:57:19.811Z,1024.5
2018-11-28T08:02:20.184Z,1024.5
2018-11-28T08:07:20.177Z,1024.4
2018-11-28T08:12:20.445Z,1024.4
2018-11-28T08:17:19.820Z,1024.4
2018-11-28T08:22:20.109Z,1024.4
2018-11-28T08:27:20.692Z,1024.4
2018-11-28T08:32:19.836Z,1024.4
2018-11-28T08:37:20.224Z,1024.4
2018-11-28T08:42:20.351Z,1024.4
2018-11-28T08:47:19.758Z,1024.4
2018-11-28T08:52:20.039Z,1024.4
2018-11-28T08:57:19.913Z,1024.4
2018-11-28T09:02:20.445Z,1024.4
2018-11-28T09:07:19.691Z,1024.4
2018-11-28T09:12:19.927Z,1024.4
2018-11-28T09:17:20.435Z,1024.3
2018-11-28T09:22:20.620Z,1024.3
2018-11-28T09:27:19.838Z,1024.3
2018-11-28T09:32:20.074Z,1024.3
2018-11-28T09:37:19.828Z,1024.4
2018-11-28T09:42:20.269Z,1024.4
2018-11-28T09:47:19.752Z,1024.3
2018-11-28T09:52:19.981Z,1024.3
2018-11-28T09:57:20.221Z,1024.3
2018-11-28T10:02:20.615Z,1024.3
2018-11-28T10:07:20.665Z,1024.1
2018-11-28T10:12:19.969Z,1024.1
2018-11-28T10:17:20.297Z,1024.1
2018-11-28T10:22:19.808Z,1024.1
2018-11-28T10:27:20.123Z,1024.1
2018-11-28T10:32:20.388Z,1024.1
2018-11-28T10:37:19.759Z,1024
2018-11-28T10:42:20.051Z,1024
2018-11-28T10:47:20.356Z,1023.8
2018-11-28T10:52:20.484Z,1023.8
2018-11-28T10:57:19.883Z,1023.8
2018-11-28T11:02:19.955Z,1023.8
2018-11-28T11:07:20.282Z,1023.6
2018-11-28T11:12:20.556Z,1023.6
2018-11-28T11:17:19.764Z,1023.4
2018-11-28T11:22:20.105Z,1023.4
2018-11-28T11:27:20.567Z,1023.4
2018-11-28T11:32:19.845Z,1023.4
2018-11-28T11:37:20.313Z,1023.4
2018-11-28T11:42:20.519Z,1023.4
2018-11-28T11:47:20.756Z,1023.3
2018-11-28T11:52:19.987Z,1023.3
2018-11-28T11:57:20.357Z,1023.3
2018-11-28T12:02:20.632Z,1023.3
2018-11-28T12:07:20.708Z,1023.2
2018-11-28T12:12:19.899Z,1023.2
2018-11-28T12:17:20.566Z,1023.1
2018-11-28T12:22:20.695Z,1023.1
2018-11-28T12:27:19.967Z,1023.1
2018-11-28T12:32:20.760Z,1023.1
2018-11-28T12:37:20.465Z,1022.8
2018-11-28T12:42:20.716Z,1022.8
2018-11-28T12:47:20.019Z,1022.7
2018-11-28T12:52:20.196Z,1022.7
2018-11-28T12:57:20.513Z,1022.7
2018-11-28T13:02:20.902Z,1022.7
2018-11-28T13:07:20.043Z,1022.7
2018-11-28T13:12:20.394Z,1022.7
2018-11-28T13:17:20.787Z,1022.6
2018-11-28T13:22:20.185Z,1022.6
2018-11-28T13:27:20.340Z,1022.6
2018-11-28T13:32:20.026Z,1022.6
2018-11-28T13:37:20.821Z,1022.5
2018-11-28T13:42:19.980Z,1022.5
2018-11-28T13:47:20.364Z,1022.2
2018-11-28T13:52:20.050Z,1022.2
2018-11-28T13:57:20.469Z,1022.2
2018-11-28T14:02:20.072Z,1022.2
2018-11-28T14:07:20.650Z,1022.1
2018-11-28T14:12:20.254Z,1022.1
2018-11-28T14:17:20.680Z,1022.1
2018-11-28T14:22:20.365Z,1022.1
2018-11-28T14:27:20.834Z,1022.1
2018-11-28T14:32:20.177Z,1022.1
2018-11-28T14:37:20.573Z,1022
2018-11-28T14:42:20.885Z,1022
2018-11-28T14:47:20.246Z,1021.7
2018-11-28T14:52:20.544Z,1021.7
2018-11-28T14:57:20.812Z,1021.7
2018-11-28T15:02:20.373Z,1021.7
2018-11-28T15:07:20.219Z,1021.7
2018-11-28T15:12:20.782Z,1021.7
2018-11-28T15:17:20.299Z,1021.7
2018-11-28T15:22:20.599Z,1021.7
2018-11-28T15:27:20.189Z,1021.7
2018-11-28T15:32:20.554Z,1021.7
2018-11-28T15:37:20.036Z,1021.7
2018-11-28T15:42:20.267Z,1021.7
2018-11-28T15:47:20.575Z,1021.6
2018-11-28T15:52:21.126Z,1021.6
2018-11-28T15:57:20.378Z,1021.6
2018-11-28T16:02:21.136Z,1021.6
2018-11-28T16:07:20.817Z,1021.4
2018-11-28T16:12:20.187Z,1021.4
2018-11-28T16:17:20.575Z,1021.3
2018-11-28T16:22:20.722Z,1021.3
2018-11-28T16:27:20.229Z,1021.3
2018-11-28T16:32:20.465Z,1021.3
2018-11-28T16:37:20.948Z,1021.2
2018-11-28T16:42:20.197Z,1021.2
2018-11-28T16:47:20.546Z,1021.2
2018-11-28T16:52:20.764Z,1021.2
2018-11-28T16:57:21.018Z,1021.2
2018-11-28T17:02:20.365Z,1021.2
2018-11-28T17:07:21.112Z,1021.1
2018-11-28T17:12:20.785Z,1021.1
2018-11-28T17:17:21.087Z,1021
2018-11-28T17:22:20.299Z,1021
2018-11-28T17:27:20.785Z,1021
2018-11-28T17:32:21.250Z,1021
2018-11-28T17:37:20.726Z,1020.9
2018-11-28T17:42:20.980Z,1020.9
2018-11-28T17:47:20.299Z,1020.9
2018-11-28T17:52:20.555Z,1020.9
2018-11-28T17:57:20.847Z,1020.9
2018-11-28T18:02:21.294Z,1020.9
2018-11-28T18:07:20.422Z,1020.6
2018-11-28T18:12:20.916Z,1020.6
2018-11-28T18:17:20.489Z,1020.5
2018-11-28T18:22:20.843Z,1020.5
2018-11-28T18:27:21.220Z,1020.5
2018-11-28T18:32:20.506Z,1020.5
2018-11-28T18:37:24.253Z,1020.1
2018-11-28T18:42:20.813Z,1020.1
2018-11-28T18:47:20.664Z,1020
2018-11-28T18:52:21.584Z,1020
2018-11-28T18:57:20.825Z,1020
2018-11-28T19:02:20.419Z,1020
2018-11-28T19:07:21.057Z,1020.3
2018-11-28T19:12:21.199Z,1020.3
2018-11-28T19:17:20.517Z,1020.4
2018-11-28T19:22:20.789Z,1020.4
2018-11-28T19:27:21.072Z,1020.4
2018-11-28T19:32:21.297Z,1020.4
2018-11-28T19:37:20.940Z,1020.1
2018-11-28T19:42:21.087Z,1020.1
2018-11-28T19:47:20.377Z,1020.1
2018-11-28T19:52:20.568Z,1020.1
2018-11-28T19:57:20.950Z,1020.1
2018-11-28T20:02:21.340Z,1020.1
2018-11-28T20:07:21.548Z,1019.9
2018-11-28T20:12:21.005Z,1019.9
2018-11-28T20:17:20.363Z,1019.6
2018-11-28T20:22:20.644Z,1019.6
2018-11-28T20:27:20.885Z,1019.6
2018-11-28T20:32:21.155Z,1019.6
2018-11-28T20:37:20.524Z,1019.5
2018-11-28T20:42:20.716Z,1019.5
2018-11-28T20:47:20.961Z,1019.3
2018-11-28T20:52:21.170Z,1019.3
2018-11-28T20:57:20.521Z,1019.3
2018-11-28T21:02:20.832Z,1019.3
2018-11-28T21:07:20.486Z,1019.1
2018-11-28T21:12:20.888Z,1019.1
2018-11-28T21:17:21.335Z,1019
2018-11-28T21:22:21.390Z,1019
2018-11-28T21:27:20.576Z,1019
2018-11-28T21:32:20.854Z,1019
2018-11-28T21:37:21.297Z,1018.8
2018-11-28T21:42:21.374Z,1018.8
2018-11-28T21:47:20.711Z,1018.7
2018-11-28T21:52:20.834Z,1018.7
2018-11-28T21:57:21.177Z,1018.7
2018-11-28T22:02:21.518Z,1018.7
2018-11-28T22:07:21.351Z,1018.5
2018-11-28T22:12:20.708Z,1018.5
2018-11-28T22:17:20.921Z,1018.5
2018-11-28T22:22:21.234Z,1018.5
2018-11-28T22:27:20.492Z,1018.5
2018-11-28T22:32:21.254Z,1018.5
2018-11-28T22:37:20.549Z,1018.6
2018-11-28T22:42:20.760Z,1018.6
2018-11-28T22:47:20.967Z,1018.5
2018-11-28T22:52:21.127Z,1018.5
2018-11-28T22:57:20.614Z,1018.5
2018-11-28T23:02:21.117Z,1018.5
2018-11-28T23:07:21.082Z,1018.4
2018-11-28T23:12:21.785Z,1018.4
2018-11-28T23:17:21.009Z,1018
2018-11-28T23:22:21.239Z,1018
2018-11-28T23:27:21.533Z,1018
2018-11-28T23:32:20.770Z,1018
2018-11-28T23:37:21.488Z,1017.8
2018-11-28T23:42:20.638Z,1017.8
2018-11-28T23:47:20.852Z,1017.6
2018-11-28T23:52:21.052Z,1017.6
2018-11-28T23:57:21.153Z,1017.6
